createdAt,value
2017-10-15T00:01:32.708Z,100930.45
2017-10-15T00:03:59.704Z,100929.19
2017-10-15T00:06:25.962Z,100939.05
2017-10-15T00:08:52.232Z,100934.56
2017-10-15T00:11:18.542Z,100935.24
2017-10-15T00:13:46.642Z,100932.84
2017-10-15T00:16:12.912Z,100929.19
2017-10-15T00:18:39.186Z,100933.42
2017-10-15T00:21:06.208Z,100929.30
2017-10-15T00:23:34.043Z,100927.63
2017-10-15T00:26:00.333Z,100933.70
2017-10-15T00:28:27.338Z,100931.95
2017-10-15T00:30:53.605Z,100932.45
2017-10-15T00:33:20.644Z,100938.66
2017-10-15T00:35:47.710Z,100932.54
2017-10-15T00:38:13.965Z,100938.13
2017-10-15T00:40:40.283Z,100939.84
2017-10-15T00:43:06.565Z,100937.55
2017-10-15T00:45:32.858Z,100932.57
2017-10-15T00:47:59.113Z,100927.95
2017-10-15T00:50:25.470Z,100924.05
2017-10-15T00:52:51.745Z,100931.04
2017-10-15T00:55:18.087Z,100918.73
2017-10-15T00:57:44.390Z,100925.03
2017-10-15T01:00:10.671Z,100926.22
2017-10-15T01:02:36.956Z,100924.77
2017-10-15T01:05:03.282Z,100919.33
2017-10-15T01:07:29.599Z,100909.19
2017-10-15T01:09:56.614Z,100918.39
2017-10-15T01:12:22.904Z,100917.47
2017-10-15T01:14:49.200Z,100915.20
2017-10-15T01:17:16.201Z,100922.42
2017-10-15T01:19:42.476Z,100915.34
2017-10-15T01:22:09.519Z,100920.66
2017-10-15T01:24:36.554Z,100912.99
2017-10-15T01:27:02.821Z,100924.38
2017-10-15T01:29:29.231Z,100918.86
2017-10-15T01:31:56.305Z,100924.55
2017-10-15T01:34:22.560Z,100924.70
2017-10-15T01:36:48.809Z,100916.54
2017-10-15T01:39:15.123Z,100919.93
2017-10-15T01:41:41.409Z,100915.98
2017-10-15T01:44:07.698Z,100916.75
2017-10-15T01:46:34.017Z,100914.07
2017-10-15T01:49:00.282Z,100913.73
2017-10-15T01:51:26.560Z,100916.22
2017-10-15T01:53:52.797Z,100916.98
2017-10-15T01:56:19.092Z,100918.25
2017-10-15T01:58:46.100Z,100921.89
2017-10-15T02:01:12.366Z,100916.96
2017-10-15T02:03:38.664Z,100917.02
2017-10-15T02:06:04.998Z,100913.61
2017-10-15T02:08:31.279Z,100907.73
2017-10-15T02:10:57.613Z,100910.41
2017-10-15T02:13:23.900Z,100915.36
2017-10-15T02:15:50.199Z,100913.24
2017-10-15T02:18:16.475Z,100913.56
2017-10-15T02:20:43.486Z,100918.50
2017-10-15T02:23:09.813Z,100917.14
2017-10-15T02:25:36.079Z,100913.41
2017-10-15T02:28:03.161Z,100907.16
2017-10-15T02:30:29.425Z,100915.66
2017-10-15T02:32:55.693Z,100918.78
2017-10-15T02:35:22.689Z,100917.69
2017-10-15T02:37:48.946Z,100918.21
2017-10-15T02:40:15.261Z,100918.22
2017-10-15T02:42:41.553Z,100913.52
2017-10-15T02:45:07.871Z,100917.95
2017-10-15T02:47:34.218Z,100919.17
2017-10-15T02:50:00.487Z,100919.73
2017-10-15T02:52:26.779Z,100913.85
2017-10-15T02:54:53.105Z,100914.05
2017-10-15T02:57:19.408Z,100917.28
2017-10-15T02:59:46.419Z,100904.22
2017-10-15T03:02:12.653Z,100920.48
2017-10-15T03:04:38.921Z,100911.32
2017-10-15T03:07:05.908Z,100914.05
2017-10-15T03:09:32.346Z,100913.44
2017-10-15T03:11:58.632Z,100916.45
2017-10-15T03:14:25.620Z,100913.16
2017-10-15T03:16:51.908Z,100911.60
2017-10-15T03:19:18.224Z,100915.75
2017-10-15T03:21:45.334Z,100912.40
2017-10-15T03:24:11.618Z,100906.02
2017-10-15T03:26:37.912Z,100904.80
2017-10-15T03:29:04.159Z,100912.45
2017-10-15T03:31:30.582Z,100908.08
2017-10-15T03:33:56.862Z,100906.53
2017-10-15T03:36:23.230Z,100906.34
2017-10-15T03:38:49.504Z,100904.70
2017-10-15T03:41:16.849Z,100903.53
2017-10-15T03:43:43.903Z,100900.00
2017-10-15T03:46:10.940Z,100906.77
2017-10-15T03:48:37.218Z,100904.92
2017-10-15T03:51:03.525Z,100905.07
2017-10-15T03:53:29.771Z,100907.33
2017-10-15T03:55:56.097Z,100908.55
2017-10-15T03:58:22.338Z,100911.00
2017-10-15T04:00:48.583Z,100909.91
2017-10-15T04:03:14.836Z,100907.08
2017-10-15T04:05:41.089Z,100909.39
2017-10-15T04:08:08.118Z,100901.69
2017-10-15T04:10:34.417Z,100911.50
2017-10-15T04:13:00.683Z,100913.66
2017-10-15T04:15:26.927Z,100916.58
2017-10-15T04:17:53.246Z,100913.75
2017-10-15T04:20:19.533Z,100915.63
2017-10-15T04:22:46.001Z,100917.31
2017-10-15T04:25:13.793Z,100914.31
2017-10-15T04:27:40.053Z,100914.48
2017-10-15T04:30:06.425Z,100918.15
2017-10-15T04:32:32.728Z,100915.99
2017-10-15T04:34:58.986Z,100920.03
2017-10-15T04:37:25.253Z,100929.78
2017-10-15T04:39:58.619Z,100932.60
2017-10-15T04:42:24.861Z,100934.34
2017-10-15T04:44:51.882Z,100930.02
2017-10-15T04:47:18.212Z,100928.33
2017-10-15T04:49:44.575Z,100936.86
2017-10-15T04:52:11.618Z,100932.45
2017-10-15T04:54:38.628Z,100931.64
2017-10-15T04:57:04.902Z,100927.69
2017-10-15T04:59:31.924Z,100936.38
2017-10-15T05:01:58.238Z,100928.95
2017-10-15T05:04:24.672Z,100946.84
2017-10-15T05:06:50.994Z,100930.83
2017-10-15T05:09:17.256Z,100942.49
2017-10-15T05:11:43.509Z,100951.61
2017-10-15T05:14:10.547Z,100948.86
2017-10-15T05:16:38.493Z,100958.43
2017-10-15T05:19:04.832Z,100958.61
2017-10-15T05:21:31.139Z,100965.11
2017-10-15T05:23:57.411Z,100966.11
2017-10-15T05:26:24.456Z,100956.83
2017-10-15T05:28:51.469Z,100950.25
2017-10-15T05:31:17.757Z,100955.03
2017-10-15T05:33:44.069Z,100945.97
2017-10-15T05:36:10.400Z,100955.50
2017-10-15T05:38:37.401Z,100962.87
2017-10-15T05:41:03.674Z,100954.61
2017-10-15T05:43:30.700Z,100957.41
2017-10-15T05:45:57.185Z,100952.70
2017-10-15T05:48:23.506Z,100957.83
2017-10-15T05:50:49.810Z,100964.58
2017-10-15T05:53:16.276Z,100962.97
2017-10-15T05:55:42.534Z,100961.19
2017-10-15T05:58:08.874Z,100970.09
2017-10-15T06:00:35.140Z,100971.05
2017-10-15T06:03:02.130Z,100968.59
2017-10-15T06:05:28.410Z,100973.83
2017-10-15T06:07:55.426Z,100977.45
2017-10-15T06:10:21.694Z,100980.25
2017-10-15T06:12:48.754Z,100981.52
2017-10-15T06:15:15.073Z,100985.31
2017-10-15T06:17:42.149Z,100986.92
2017-10-15T06:20:08.379Z,100993.27
2017-10-15T06:22:34.684Z,100989.98
2017-10-15T06:25:01.702Z,101001.16
2017-10-15T06:27:27.994Z,101003.84
2017-10-15T06:29:54.333Z,101006.89
2017-10-15T06:32:20.664Z,101004.88
2017-10-15T06:34:47.015Z,100999.07
2017-10-15T06:37:14.227Z,101006.75
2017-10-15T06:39:40.571Z,101007.48
2017-10-15T06:42:06.875Z,101001.55
2017-10-15T06:44:33.237Z,101006.64
2017-10-15T06:46:59.542Z,101001.74
2017-10-15T06:49:26.614Z,101013.74
2017-10-15T06:51:52.989Z,101008.38
2017-10-15T06:54:19.539Z,101012.42
2017-10-15T06:56:46.839Z,101003.88
2017-10-15T06:59:13.180Z,101014.20
2017-10-15T07:01:39.472Z,101012.66
2017-10-15T07:04:06.468Z,101013.86
2017-10-15T07:06:32.767Z,101012.23
2017-10-15T07:08:59.061Z,101018.25
2017-10-15T07:11:25.381Z,101020.52
2017-10-15T07:13:51.689Z,101022.59
2017-10-15T07:16:18.021Z,101019.26
2017-10-15T07:18:44.341Z,101012.86
2017-10-15T07:21:10.684Z,101019.32
2017-10-15T07:23:38.052Z,101020.26
2017-10-15T07:26:04.336Z,101022.59
2017-10-15T07:28:30.597Z,101019.45
2017-10-15T07:30:56.862Z,101017.55
2017-10-15T07:33:23.992Z,101020.33
2017-10-15T07:35:50.245Z,101016.60
2017-10-15T07:38:17.228Z,101016.35
2017-10-15T07:40:43.489Z,101017.28
2017-10-15T07:43:09.876Z,101018.37
2017-10-15T07:45:36.206Z,101024.58
2017-10-15T07:48:02.523Z,101014.41
2017-10-15T07:50:29.564Z,101015.20
2017-10-15T07:52:56.583Z,101014.16
2017-10-15T07:55:22.852Z,101009.35
2017-10-15T07:57:50.714Z,101011.78
2017-10-15T08:00:17.819Z,101011.94
2017-10-15T08:02:44.131Z,101014.52
2017-10-15T08:05:10.411Z,101016.59
2017-10-15T08:07:36.688Z,101007.83
2017-10-15T08:10:03.010Z,101014.11
2017-10-15T08:12:29.285Z,101012.40
2017-10-15T08:14:55.577Z,101009.33
2017-10-15T08:17:21.845Z,101011.84
2017-10-15T08:19:48.183Z,101008.84
2017-10-15T08:22:14.463Z,101010.25
2017-10-15T08:24:40.769Z,101008.66
2017-10-15T08:27:07.813Z,101010.86
2017-10-15T08:29:34.821Z,101011.19
2017-10-15T08:32:01.091Z,101013.19
2017-10-15T08:34:28.133Z,101012.30
2017-10-15T08:36:55.213Z,101017.90
2017-10-15T08:39:21.552Z,101008.97
2017-10-15T08:41:47.878Z,101008.44
2017-10-15T08:44:14.176Z,101010.02
2017-10-15T08:46:41.188Z,101012.27
2017-10-15T08:49:08.484Z,101011.31
2017-10-15T08:51:35.544Z,101009.59
2017-10-15T08:54:01.845Z,101011.45
2017-10-15T08:56:28.168Z,101008.05
2017-10-15T08:58:54.440Z,101014.50
2017-10-15T09:01:20.705Z,101018.91
2017-10-15T09:03:47.005Z,101011.45
2017-10-15T09:06:13.396Z,101011.06
2017-10-15T09:08:39.815Z,101013.37
2017-10-15T09:11:06.235Z,101013.75
2017-10-15T09:13:33.566Z,101016.96
2017-10-15T09:15:59.921Z,101012.31
2017-10-15T09:18:26.207Z,101009.70
2017-10-15T09:20:53.213Z,101002.84
2017-10-15T09:23:19.534Z,101003.58
2017-10-15T09:25:45.859Z,101007.66
2017-10-15T09:28:12.189Z,101000.97
2017-10-15T09:30:39.169Z,100994.84
2017-10-15T09:33:05.514Z,100986.06
2017-10-15T09:35:32.546Z,100989.13
2017-10-15T09:37:58.866Z,100989.96
2017-10-15T09:40:25.172Z,100982.83
2017-10-15T09:42:51.562Z,100992.33
2017-10-15T09:45:18.610Z,100989.05
2017-10-15T09:47:45.722Z,100984.21
2017-10-15T09:50:12.025Z,100979.80
2017-10-15T09:52:38.323Z,100977.61
2017-10-15T09:55:05.357Z,100974.70
2017-10-15T09:57:32.418Z,100972.78
2017-10-15T09:59:59.499Z,100973.42
2017-10-15T10:02:25.809Z,100968.01
2017-10-15T10:04:52.072Z,100967.22
2017-10-15T10:07:18.511Z,100965.94
2017-10-15T10:09:44.905Z,100966.81
2017-10-15T10:12:11.169Z,100967.47
2017-10-15T10:14:37.458Z,100956.89
2017-10-15T10:17:03.799Z,100955.25
2017-10-15T10:19:30.109Z,100952.08
2017-10-15T10:21:57.210Z,100945.77
2017-10-15T10:24:23.514Z,100938.05
2017-10-15T10:26:49.899Z,100936.78
2017-10-15T10:29:16.253Z,100938.13
2017-10-15T10:31:43.314Z,100934.03
2017-10-15T10:34:10.473Z,100931.46
2017-10-15T10:36:37.004Z,100933.47
2017-10-15T10:39:03.539Z,100927.45
2017-10-15T10:41:29.940Z,100919.62
2017-10-15T10:43:56.257Z,100914.67
2017-10-15T10:46:22.554Z,100910.34
2017-10-15T10:48:48.908Z,100905.72
2017-10-15T10:51:15.318Z,100912.73
2017-10-15T10:53:41.722Z,100907.63
2017-10-15T10:56:08.840Z,100904.97
2017-10-15T10:58:35.249Z,100904.92
2017-10-15T11:01:01.611Z,100897.92
2017-10-15T11:03:27.928Z,100894.22
2017-10-15T11:05:54.265Z,100893.78
2017-10-15T11:08:20.664Z,100898.64
2017-10-15T11:10:47.073Z,100887.67
2017-10-15T11:13:13.403Z,100899.06
2017-10-15T11:15:39.731Z,100888.00
2017-10-15T11:18:06.795Z,100885.81
2017-10-15T11:20:33.170Z,100892.55
2017-10-15T11:22:59.643Z,100895.02
2017-10-15T11:25:26.738Z,100885.28
2017-10-15T11:27:53.081Z,100883.02
2017-10-15T11:30:19.422Z,100886.35
2017-10-15T11:32:46.441Z,100891.09
2017-10-15T11:35:12.757Z,100885.49
2017-10-15T11:37:39.101Z,100895.17
2017-10-15T11:40:05.432Z,100894.97
2017-10-15T11:42:32.325Z,100895.97
2017-10-15T11:44:59.146Z,100891.95
2017-10-15T11:47:26.997Z,100888.42
2017-10-15T11:49:54.145Z,100884.44
2017-10-15T11:52:20.417Z,100882.17
2017-10-15T11:54:46.803Z,100880.68
2017-10-15T11:57:13.082Z,100877.36
2017-10-15T11:59:40.187Z,100876.89
2017-10-15T12:02:06.676Z,100868.96
2017-10-15T12:04:32.975Z,100862.20
2017-10-15T12:06:59.304Z,100862.31
2017-10-15T12:09:25.592Z,100860.72
2017-10-15T12:11:51.948Z,100861.57
2017-10-15T12:14:18.298Z,100860.38
2017-10-15T12:16:44.572Z,100859.08
2017-10-15T12:19:10.925Z,100860.28
2017-10-15T12:21:37.220Z,100847.91
2017-10-15T12:24:04.353Z,100838.87
2017-10-15T12:26:30.663Z,100844.28
2017-10-15T12:28:56.985Z,100839.33
2017-10-15T12:31:24.092Z,100839.80
2017-10-15T12:33:50.394Z,100836.61
2017-10-15T12:36:16.754Z,100830.53
2017-10-15T12:38:43.088Z,100828.62
2017-10-15T12:41:09.406Z,100822.34
2017-10-15T12:43:35.731Z,100827.42
2017-10-15T12:46:02.722Z,100819.16
2017-10-15T12:48:29.038Z,100813.66
2017-10-15T12:50:55.366Z,100811.69
2017-10-15T12:53:22.120Z,100800.52
2017-10-15T12:55:48.494Z,100805.70
2017-10-15T12:58:14.954Z,100791.69
2017-10-15T13:00:41.403Z,100786.05
2017-10-15T13:03:07.793Z,100787.81
2017-10-15T13:05:35.082Z,100788.86
2017-10-15T13:08:01.454Z,100786.67
2017-10-15T13:10:27.801Z,100791.72
2017-10-15T13:12:54.110Z,100788.47
2017-10-15T13:15:20.430Z,100792.45
2017-10-15T13:17:46.911Z,100782.52
2017-10-15T13:20:13.246Z,100779.60
2017-10-15T13:22:39.625Z,100781.88
2017-10-15T13:25:06.825Z,100781.30
2017-10-15T13:27:33.203Z,100767.16
2017-10-15T13:29:59.529Z,100770.58
2017-10-15T13:32:25.823Z,100765.61
2017-10-15T13:34:52.127Z,100757.89
2017-10-15T13:37:18.454Z,100760.72
2017-10-15T13:39:44.746Z,100749.73
2017-10-15T13:42:11.098Z,100746.55
2017-10-15T13:44:37.424Z,100737.33
2017-10-15T13:47:03.703Z,100742.06
2017-10-15T13:49:30.012Z,100733.30
2017-10-15T13:51:56.302Z,100726.28
2017-10-15T13:54:22.590Z,100741.98
2017-10-15T13:56:48.982Z,100728.33
2017-10-15T13:59:15.310Z,100732.84
2017-10-15T14:01:41.691Z,100723.73
2017-10-15T14:04:08.093Z,100728.79
2017-10-15T14:06:34.366Z,100723.91
2017-10-15T14:09:01.444Z,100731.33
2017-10-15T14:11:27.814Z,100722.44
2017-10-15T14:13:54.187Z,100713.95
2017-10-15T14:16:21.254Z,100709.22
2017-10-15T14:18:47.855Z,100714.72
2017-10-15T14:21:14.179Z,100705.11
2017-10-15T14:23:40.493Z,100699.21
2017-10-15T14:26:06.789Z,100700.18
2017-10-15T14:28:33.686Z,100690.22
2017-10-15T14:30:59.991Z,100683.56
2017-10-15T14:33:26.316Z,100678.81
2017-10-15T14:35:52.659Z,100677.99
2017-10-15T14:38:18.974Z,100674.50
2017-10-15T14:40:45.311Z,100669.41
2017-10-15T14:43:11.682Z,100668.51
2017-10-15T14:45:38.111Z,100664.18
2017-10-15T14:48:04.489Z,100667.11
2017-10-15T14:50:30.919Z,100655.13
2017-10-15T14:52:57.283Z,100658.45
2017-10-15T14:55:23.625Z,100658.36
2017-10-15T14:57:49.929Z,100656.28
2017-10-15T15:00:16.234Z,100645.19
2017-10-15T15:02:42.602Z,100647.97
2017-10-15T15:05:09.142Z,100643.21
2017-10-15T15:07:37.870Z,100634.49
2017-10-15T15:10:06.941Z,100629.02
2017-10-15T15:12:33.589Z,100635.42
2017-10-15T15:14:59.893Z,100633.66
2017-10-15T15:17:26.326Z,100628.80
2017-10-15T15:19:52.693Z,100627.76
2017-10-15T15:22:19.469Z,100637.55
2017-10-15T15:24:45.838Z,100626.31
2017-10-15T15:27:12.147Z,100630.48
2017-10-15T15:29:38.539Z,100628.11
2017-10-15T15:32:05.605Z,100625.17
2017-10-15T15:34:32.300Z,100623.23
2017-10-15T15:36:58.613Z,100627.77
2017-10-15T15:39:24.994Z,100629.41
2017-10-15T15:41:52.196Z,100631.75
2017-10-15T15:44:18.561Z,100633.10
2017-10-15T15:46:44.978Z,100627.98
2017-10-15T15:49:12.034Z,100634.17
2017-10-15T15:51:39.110Z,100628.56
2017-10-15T15:54:06.236Z,100625.83
2017-10-15T15:56:32.752Z,100630.45
2017-10-15T15:58:59.120Z,100637.02
2017-10-15T16:01:26.196Z,100635.61
2017-10-15T16:03:52.480Z,100632.80
2017-10-15T16:06:18.820Z,100631.30
2017-10-15T16:08:46.553Z,100618.25
2017-10-15T16:11:12.961Z,100635.91
2017-10-15T16:13:39.405Z,100638.16
2017-10-15T16:16:05.681Z,100642.39
2017-10-15T16:18:33.178Z,100638.97
2017-10-15T16:21:00.579Z,100647.16
2017-10-15T16:23:27.132Z,100647.00
2017-10-15T16:25:53.450Z,100647.13
2017-10-15T16:28:19.846Z,100652.69
2017-10-15T16:30:46.388Z,100651.27
2017-10-15T16:33:13.832Z,100650.52
2017-10-15T16:35:40.195Z,100647.44
2017-10-15T16:38:06.687Z,100647.45
2017-10-15T16:40:33.124Z,100653.14
2017-10-15T16:42:59.628Z,100658.35
2017-10-15T16:45:25.945Z,100659.76
2017-10-15T16:47:52.329Z,100659.13
2017-10-15T16:50:19.513Z,100664.95
2017-10-15T16:52:45.945Z,100668.70
2017-10-15T16:55:12.312Z,100669.70
2017-10-15T16:57:38.621Z,100670.63
2017-10-15T17:00:05.109Z,100672.71
2017-10-15T17:02:31.653Z,100668.30
2017-10-15T17:04:58.075Z,100674.92
2017-10-15T17:07:24.448Z,100679.83
2017-10-15T17:09:50.829Z,100681.45
2017-10-15T17:12:17.242Z,100679.56
2017-10-15T17:14:43.575Z,100685.41
2017-10-15T17:17:09.949Z,100686.73
2017-10-15T17:19:40.159Z,100686.77
2017-10-15T17:22:06.560Z,100688.77
2017-10-15T17:24:32.843Z,100692.93
2017-10-15T17:27:00.210Z,100694.22
2017-10-15T17:29:27.822Z,100695.13
2017-10-15T17:31:54.150Z,100700.02
2017-10-15T17:34:20.559Z,100700.48
2017-10-15T17:36:46.955Z,100700.44
2017-10-15T17:39:13.287Z,100704.48
2017-10-15T17:41:39.636Z,100707.04
2017-10-15T17:44:06.063Z,100706.08
2017-10-15T17:46:32.394Z,100705.49
2017-10-15T17:48:58.832Z,100704.55
2017-10-15T17:51:25.271Z,100714.97
2017-10-15T17:53:51.673Z,100715.73
2017-10-15T17:56:18.048Z,100707.63
2017-10-15T17:58:44.386Z,100709.45
2017-10-15T18:01:11.293Z,100713.94
2017-10-15T18:03:37.649Z,100716.78
2017-10-15T18:06:04.487Z,100684.72
2017-10-15T18:08:30.932Z,100719.25
2017-10-15T18:10:57.358Z,100720.36
2017-10-15T18:13:23.831Z,100717.91
2017-10-15T18:15:50.368Z,100718.41
2017-10-15T18:18:17.603Z,100703.05
2017-10-15T18:20:43.997Z,100720.86
2017-10-15T18:23:10.471Z,100709.20
2017-10-15T18:25:37.696Z,100715.25
2017-10-15T18:28:04.280Z,100712.31
2017-10-15T18:30:31.674Z,100718.16
2017-10-15T18:32:58.033Z,100714.48
2017-10-15T18:35:24.428Z,100701.61
2017-10-15T18:37:50.827Z,100712.79
2017-10-15T18:40:17.203Z,100711.94
2017-10-15T18:42:43.647Z,100709.96
2017-10-15T18:45:11.280Z,100701.91
2017-10-15T18:47:37.729Z,100706.77
2017-10-15T18:50:04.200Z,100711.77
2017-10-15T18:52:31.844Z,100709.95
2017-10-15T18:54:58.275Z,100708.61
2017-10-15T18:57:24.704Z,100708.08
2017-10-15T18:59:51.173Z,100702.72
2017-10-15T19:02:17.524Z,100706.19
2017-10-15T19:04:44.620Z,100710.08
2017-10-15T19:07:11.790Z,100715.07
2017-10-15T19:09:39.162Z,100714.04
2017-10-15T19:12:05.770Z,100713.05
2017-10-15T19:14:32.277Z,100707.21
2017-10-15T19:16:58.641Z,100719.53
2017-10-15T19:19:25.182Z,100723.39
2017-10-15T19:21:51.648Z,100716.33
2017-10-15T19:24:18.011Z,100717.38
2017-10-15T19:26:44.347Z,100719.09
2017-10-15T19:29:10.756Z,100720.81
2017-10-15T19:31:37.872Z,100717.55
2017-10-15T19:34:04.422Z,100716.64
2017-10-15T19:36:30.802Z,100724.06
2017-10-15T19:38:57.226Z,100717.91
2017-10-15T19:41:24.718Z,100720.70
2017-10-15T19:43:51.100Z,100726.16
2017-10-15T19:46:17.463Z,100725.77
2017-10-15T19:48:43.854Z,100726.61
2017-10-15T19:51:11.034Z,100724.98
2017-10-15T19:53:37.396Z,100717.63
2017-10-15T19:56:04.647Z,100727.12
2017-10-15T19:58:31.299Z,100722.92
2017-10-15T20:00:57.668Z,100727.25
2017-10-15T20:03:24.777Z,100720.65
2017-10-15T20:05:51.831Z,100730.20
2017-10-15T20:08:18.940Z,100734.16
2017-10-15T20:10:45.453Z,100730.47
2017-10-15T20:13:12.556Z,100725.75
2017-10-15T20:15:38.924Z,100723.64
2017-10-15T20:18:06.080Z,100726.30
2017-10-15T20:20:33.148Z,100722.48
2017-10-15T20:22:59.454Z,100724.22
2017-10-15T20:25:26.847Z,100716.30
2017-10-15T20:27:53.178Z,100720.38
2017-10-15T20:30:19.608Z,100719.53
2017-10-15T20:32:46.018Z,100721.13
2017-10-15T20:35:13.066Z,100718.66
2017-10-15T20:37:40.114Z,100724.80
2017-10-15T20:40:07.122Z,100720.72
2017-10-15T20:42:34.004Z,100719.32
2017-10-15T20:45:01.087Z,100723.00
2017-10-15T20:47:27.404Z,100722.58
2017-10-15T20:49:53.747Z,100721.67
2017-10-15T20:52:20.552Z,100720.38
2017-10-15T20:54:47.635Z,100720.03
2017-10-15T20:57:14.077Z,100719.14
2017-10-15T20:59:40.421Z,100719.63
2017-10-15T21:02:07.620Z,100719.70
2017-10-15T21:04:34.661Z,100715.01
2017-10-15T21:07:01.732Z,100708.11
2017-10-15T21:09:28.086Z,100713.64
2017-10-15T21:11:54.444Z,100713.44
2017-10-15T21:14:20.794Z,100719.81
2017-10-15T21:16:47.104Z,100716.50
2017-10-15T21:19:13.482Z,100711.38
2017-10-15T21:21:39.835Z,100714.49
2017-10-15T21:24:06.168Z,100719.59
2017-10-15T21:26:33.211Z,100721.37
2017-10-15T21:28:59.602Z,100722.06
2017-10-15T21:31:26.905Z,100726.01
2017-10-15T21:33:53.262Z,100719.69
2017-10-15T21:36:19.637Z,100721.91
2017-10-15T21:38:46.717Z,100724.16
2017-10-15T21:41:13.209Z,100720.20
2017-10-15T21:43:39.526Z,100724.11
2017-10-15T21:46:05.869Z,100722.00
2017-10-15T21:48:32.249Z,100715.73
2017-10-15T21:50:58.699Z,100720.99
2017-10-15T21:53:25.015Z,100722.00
2017-10-15T21:55:51.341Z,100724.47
2017-10-15T21:58:17.612Z,100721.61
2017-10-15T22:00:43.905Z,100720.12
2017-10-15T22:03:10.260Z,100710.16
2017-10-15T22:05:36.625Z,100717.84
2017-10-15T22:08:04.695Z,100713.88
2017-10-15T22:10:31.733Z,100719.03
2017-10-15T22:12:58.986Z,100716.01
2017-10-15T22:15:25.295Z,100716.64
2017-10-15T22:17:51.581Z,100712.92
2017-10-15T22:20:17.997Z,100715.50
2017-10-15T22:22:45.109Z,100708.92
2017-10-15T22:25:12.035Z,100709.06
2017-10-15T22:27:38.383Z,100710.84
2017-10-15T22:30:05.432Z,100707.52
2017-10-15T22:32:31.771Z,100712.88
2017-10-15T22:34:58.087Z,100709.45
2017-10-15T22:37:24.437Z,100709.72
2017-10-15T22:39:50.733Z,100707.52
2017-10-15T22:42:17.105Z,100705.14
2017-10-15T22:44:44.359Z,100705.12
2017-10-15T22:47:10.704Z,100701.11
2017-10-15T22:49:37.078Z,100704.09
2017-10-15T22:52:04.202Z,100701.04
2017-10-15T22:54:30.532Z,100697.87
2017-10-15T22:56:56.933Z,100694.63
2017-10-15T22:59:23.266Z,100695.89
2017-10-15T23:01:49.616Z,100692.19
2017-10-15T23:04:16.722Z,100693.69
2017-10-15T23:06:43.041Z,100692.27
2017-10-15T23:09:09.377Z,100695.61
2017-10-15T23:11:35.667Z,100700.12
2017-10-15T23:14:02.721Z,100698.64
2017-10-15T23:16:29.745Z,100703.59
2017-10-15T23:18:56.102Z,100700.74
2017-10-15T23:21:23.152Z,100691.34
2017-10-15T23:23:49.495Z,100694.66
2017-10-15T23:26:15.819Z,100696.55
2017-10-15T23:28:42.117Z,100694.60
2017-10-15T23:31:08.480Z,100688.92
2017-10-15T23:33:34.793Z,100698.16
2017-10-15T23:36:01.935Z,100687.61
2017-10-15T23:38:28.255Z,100682.14
2017-10-15T23:40:54.581Z,100687.43
2017-10-15T23:43:20.937Z,100691.45
2017-10-15T23:45:47.259Z,100688.95
2017-10-15T23:48:13.580Z,100689.78
2017-10-15T23:50:39.917Z,100688.72
2017-10-15T23:53:06.235Z,100696.34
2017-10-15T23:55:32.562Z,100688.22
2017-10-15T23:57:59.580Z,100689.61
